Time;durP1;ratioP1;P1;durP2;ratioP2;P2;SDS_P1;SDS_P2;PMS_P1;PMS_P2;Temp;Humidity;BMP_temperature;BMP_pressure;BME280_temperature;BME280_humidity;BME280_pressure;Samples;Min_cycle;Max_cycle;Signal;HPM_P1;HPM_P2
2023/07/31 00:00:59;;;;;;;26.70;5.82;;;;;;;17.02;100.00;101213.75;5244631;28;20036;-74
2023/07/31 00:03:30;;;;;;;16.90;4.97;;;;;;;17.03;100.00;101212.72;5244744;28;20046;-74
2023/07/31 00:06:00;;;;;;;18.33;6.55;;;;;;;17.00;100.00;101213.09;5243666;28;20052;-74
2023/07/31 00:08:31;;;;;;;19.08;6.32;;;;;;;17.06;100.00;101220.44;5244996;28;20016;-74
2023/07/31 00:11:01;;;;;;;22.33;5.28;;;;;;;17.07;100.00;101214.00;5244259;28;20033;-74
2023/07/31 00:13:32;;;;;;;19.85;5.95;;;;;;;17.11;100.00;101214.41;5244513;28;20089;-74
2023/07/31 00:16:02;;;;;;;25.05;6.55;;;;;;;17.05;100.00;101200.63;5244061;28;20028;-74
2023/07/31 00:18:33;;;;;;;14.63;4.78;;;;;;;17.09;100.00;101201.91;5243763;28;20032;-74
2023/07/31 00:21:03;;;;;;;21.50;5.63;;;;;;;17.06;100.00;101191.44;5244605;28;20554;-74
2023/07/31 00:23:34;;;;;;;21.90;5.55;;;;;;;17.05;100.00;101199.78;5244372;28;20052;-73
2023/07/31 00:26:04;;;;;;;21.23;6.32;;;;;;;17.04;100.00;101192.69;5225871;28;20495;-74
2023/07/31 00:28:35;;;;;;;14.18;5.38;;;;;;;17.04;100.00;101185.41;5244168;28;20021;-74
2023/07/31 00:31:05;;;;;;;29.48;6.47;;;;;;;17.04;100.00;101187.28;5230870;28;20028;-75
2023/07/31 00:33:36;;;;;;;24.20;6.65;;;;;;;17.07;100.00;101190.44;5244245;28;20404;-73
2023/07/31 00:36:07;;;;;;;18.33;5.45;;;;;;;17.11;100.00;101196.28;5243744;28;20020;-74
2023/07/31 00:38:37;;;;;;;20.52;6.22;;;;;;;17.13;100.00;101191.50;5244076;28;20036;-74
2023/07/31 00:41:07;;;;;;;21.73;5.75;;;;;;;17.08;100.00;101193.97;5226271;28;20104;-74
2023/07/31 00:43:38;;;;;;;23.15;5.78;;;;;;;17.16;100.00;101188.38;5244430;28;20047;-73
2023/07/31 00:46:09;;;;;;;23.20;6.20;;;;;;;17.21;100.00;101194.03;5243584;28;20021;-74
2023/07/31 00:48:40;;;;;;;21.33;6.13;;;;;;;17.18;100.00;101186.31;5244253;28;20026;-73
2023/07/31 00:51:10;;;;;;;20.20;6.63;;;;;;;17.13;100.00;101194.22;5244136;28;20023;-73
2023/07/31 00:53:42;;;;;;;31.80;6.50;;;;;;;17.16;100.00;101188.38;5243964;28;20500;-73
2023/07/31 00:56:13;;;;;;;28.23;6.25;;;;;;;17.14;100.00;101178.78;5243383;28;20108;-73
2023/07/31 00:58:44;;;;;;;32.28;6.70;;;;;;;17.19;100.00;101177.13;5226630;28;20119;-73
2023/07/31 01:01:14;;;;;;;23.38;5.88;;;;;;;17.14;100.00;101174.19;5247351;28;20025;-74
2023/07/31 01:03:45;;;;;;;22.63;6.75;;;;;;;17.16;100.00;101174.81;5248355;28;20027;-74
2023/07/31 01:06:40;;;;;;;26.15;6.32;;;;;;;17.19;100.00;101170.88;5247415;28;20016;-74
2023/07/31 01:09:33;;;;;;;23.43;5.20;;;;;;;17.19;100.00;101170.88;5248653;28;20596;-74
2023/07/31 01:12:07;;;;;;;24.58;5.78;;;;;;;17.22;100.00;101162.31;5247800;28;20507;-73
2023/07/31 01:14:37;;;;;;;23.60;6.20;;;;;;;17.24;100.00;101166.53;5247719;28;20051;-73
2023/07/31 01:17:08;;;;;;;22.95;6.03;;;;;;;17.20;100.00;101156.28;5247177;28;20487;-74
2023/07/31 01:19:38;;;;;;;20.45;5.90;;;;;;;17.22;100.00;101155.06;5248326;28;20031;-73
2023/07/31 01:22:44;;;;;;;20.20;6.57;;;;;;;17.23;100.00;101154.00;5248073;28;20059;-73
2023/07/31 01:25:28;;;;;;;24.52;6.35;;;;;;;17.24;100.00;101155.69;5247406;28;20109;-73
2023/07/31 01:28:04;;;;;;;24.27;6.72;;;;;;;17.27;100.00;101149.00;5247470;28;20542;-73
2023/07/31 01:30:41;;;;;;;20.00;6.55;;;;;;;17.28;100.00;101156.94;5239173;28;20030;-74
2023/07/31 01:33:12;;;;;;;20.00;6.28;;;;;;;17.27;100.00;101160.72;5244378;28;20025;-75
2023/07/31 01:35:45;;;;;;;23.23;5.78;;;;;;;17.24;100.00;101152.13;5247157;28;20028;-74
2023/07/31 01:38:15;;;;;;;30.02;6.65;;;;;;;17.27;100.00;101154.41;5229463;28;20024;-74
2023/07/31 01:40:51;;;;;;;20.00;6.30;;;;;;;17.29;100.00;101161.31;5229763;28;20027;-75
2023/07/31 01:43:21;;;;;;;28.30;7.18;;;;;;;17.31;100.00;101145.69;5247620;28;20077;-74
2023/07/31 01:45:52;;;;;;;26.30;6.35;;;;;;;17.30;100.00;101154.84;5246649;28;20431;-74
2023/07/31 01:48:22;;;;;;;23.42;5.57;;;;;;;17.37;100.00;101151.31;5247449;28;20036;-74
2023/07/31 01:50:53;;;;;;;28.70;6.72;;;;;;;17.39;100.00;101150.09;5229774;28;20020;-74
2023/07/31 01:53:24;;;;;;;25.55;6.13;;;;;;;17.43;100.00;101143.22;5247460;28;20081;-74
2023/07/31 01:55:55;;;;;;;24.83;6.88;;;;;;;17.44;100.00;101141.34;5247072;28;20664;-74
2023/07/31 01:58:26;;;;;;;23.98;6.05;;;;;;;17.45;100.00;101146.56;5246889;28;20446;-74
2023/07/31 02:00:57;;;;;;;21.52;6.25;;;;;;;17.44;100.00;101131.34;5247522;28;20020;-74
2023/07/31 02:03:27;;;;;;;24.08;6.20;;;;;;;17.51;100.00;101137.59;5247295;28;20397;-74
2023/07/31 02:05:58;;;;;;;26.23;6.32;;;;;;;17.50;100.00;101118.84;5246519;28;20075;-74
2023/07/31 02:08:29;;;;;;;24.38;5.85;;;;;;;17.49;100.00;101111.75;5246727;28;20524;-75
2023/07/31 02:11:00;;;;;;;19.52;5.95;;;;;;;17.51;100.00;101112.34;5246170;28;20035;-74
2023/07/31 02:13:30;;;;;;;21.50;5.97;;;;;;;17.52;100.00;101112.19;5247215;28;20024;-74
2023/07/31 02:16:02;;;;;;;22.48;6.30;;;;;;;17.57;100.00;101104.25;5246521;28;20228;-74
2023/07/31 02:18:33;;;;;;;19.08;5.90;;;;;;;17.57;100.00;101093.41;5246828;28;20374;-74
2023/07/31 02:21:03;;;;;;;25.10;6.18;;;;;;;17.58;100.00;101089.66;5246958;28;20047;-74
2023/07/31 02:23:34;;;;;;;27.45;6.00;;;;;;;17.57;100.00;101092.53;5246264;28;20039;-74
2023/07/31 02:26:04;;;;;;;21.17;6.45;;;;;;;17.64;100.00;101089.84;5246352;28;20024;-74
2023/07/31 02:28:35;;;;;;;22.08;6.18;;;;;;;17.55;100.00;101086.50;5246487;28;20020;-74
2023/07/31 02:31:06;;;;;;;23.05;5.20;;;;;;;17.65;100.00;101086.09;5246531;28;20504;-74
2023/07/31 02:33:36;;;;;;;14.93;5.72;;;;;;;17.67;100.00;101084.00;5233342;28;20028;-74
2023/07/31 02:36:07;;;;;;;18.58;5.22;;;;;;;17.66;100.00;101080.47;5245500;28;20516;-74
2023/07/31 02:38:38;;;;;;;20.00;5.85;;;;;;;17.66;100.00;101079.63;5246084;28;20484;-74
2023/07/31 02:41:09;;;;;;;18.23;5.43;;;;;;;17.64;100.00;101073.59;5246240;28;20036;-74
2023/07/31 02:43:39;;;;;;;19.15;5.72;;;;;;;17.69;100.00;101071.91;5246770;28;20384;-74
2023/07/31 02:46:10;;;;;;;19.90;6.18;;;;;;;17.67;100.00;101068.59;5245919;28;20059;-74
2023/07/31 02:48:40;;;;;;;20.55;6.32;;;;;;;17.69;100.00;101063.78;5241212;28;20134;-74
2023/07/31 02:51:11;;;;;;;25.10;5.45;;;;;;;17.69;100.00;101060.22;5246038;28;20484;-74
2023/07/31 02:53:41;;;;;;;23.30;5.15;;;;;;;17.74;100.00;101057.75;5246412;28;20039;-74
2023/07/31 02:56:11;;;;;;;18.75;6.22;;;;;;;17.69;100.00;101058.34;5245634;28;20025;-74
2023/07/31 02:58:42;;;;;;;17.23;6.00;;;;;;;17.72;100.00;101048.94;5245615;28;20145;-74
2023/07/31 03:01:12;;;;;;;15.75;5.60;;;;;;;17.71;100.00;101037.25;5246046;28;20016;-75
2023/07/31 03:03:43;;;;;;;20.90;5.72;;;;;;;17.66;100.00;101047.91;5245981;28;20218;-73
2023/07/31 03:06:13;;;;;;;20.33;5.90;;;;;;;17.73;100.00;101043.38;5245846;28;20020;-74
2023/07/31 03:08:44;;;;;;;28.85;6.18;;;;;;;17.72;100.00;101035.38;5227735;28;20024;-74
2023/07/31 03:11:14;;;;;;;22.63;6.72;;;;;;;17.75;100.00;101040.44;5245597;28;20502;-74
2023/07/31 03:13:45;;;;;;;26.95;6.72;;;;;;;17.75;100.00;101041.25;5245941;28;20025;-74
2023/07/31 03:16:16;;;;;;;27.00;6.78;;;;;;;17.78;100.00;101038.16;5245306;28;20047;-74
2023/07/31 03:18:46;;;;;;;23.60;7.03;;;;;;;17.79;100.00;101033.53;5245137;28;20037;-74
2023/07/31 03:21:17;;;;;;;13.80;5.85;;;;;;;17.71;100.00;101031.00;5245768;28;20020;-74
2023/07/31 03:23:47;;;;;;;17.27;5.88;;;;;;;17.80;100.00;101027.91;5244117;28;20024;-74
2023/07/31 03:26:17;;;;;;;20.73;6.18;;;;;;;17.77;100.00;101036.47;5245384;28;20103;-74
2023/07/31 03:28:49;;;;;;;19.30;6.25;;;;;;;17.80;100.00;101033.34;5245344;28;20024;-74
2023/07/31 03:31:19;;;;;;;17.23;5.85;;;;;;;17.77;100.00;101028.34;5245367;28;20031;-74
2023/07/31 03:33:50;;;;;;;18.83;6.13;;;;;;;17.77;100.00;101025.63;5245456;28;20484;-75
2023/07/31 03:36:20;;;;;;;19.88;5.85;;;;;;;17.81;100.00;101028.72;5244317;28;20504;-74
2023/07/31 03:38:51;;;;;;;15.57;6.15;;;;;;;17.83;100.00;101024.78;5244844;28;20024;-74
2023/07/31 03:41:22;;;;;;;11.55;5.97;;;;;;;17.87;100.00;101017.03;5245093;28;20048;-74
2023/07/31 03:43:52;;;;;;;18.60;5.45;;;;;;;17.81;100.00;101017.88;5245291;28;20162;-73
2023/07/31 03:46:24;;;;;;;14.32;6.20;;;;;;;17.75;100.00;101018.72;5226852;28;20024;-74
2023/07/31 03:48:55;;;;;;;15.50;6.13;;;;;;;17.76;100.00;101009.53;5244551;28;20056;-74
2023/07/31 03:51:25;;;;;;;11.10;5.38;;;;;;;17.70;100.00;101008.47;5244679;28;20024;-74
2023/07/31 03:53:55;;;;;;;14.43;5.57;;;;;;;17.65;100.00;100997.41;5244833;28;20020;-74
2023/07/31 03:56:26;;;;;;;15.95;6.63;;;;;;;17.59;100.00;101004.50;5226737;28;20046;-74
2023/07/31 03:58:56;;;;;;;21.42;6.70;;;;;;;17.55;100.00;101000.53;5244640;28;20028;-75
2023/07/31 04:01:27;;;;;;;19.33;7.10;;;;;;;17.57;100.00;100997.59;5235804;28;20105;-74
2023/07/31 04:03:57;;;;;;;14.93;6.53;;;;;;;17.48;100.00;100990.75;5243552;28;20024;-75
2023/07/31 04:06:28;;;;;;;13.30;5.93;;;;;;;17.44;100.00;101005.75;5244167;28;20033;-74
2023/07/31 04:08:58;;;;;;;18.55;7.45;;;;;;;17.40;100.00;100999.06;5226753;28;20028;-75
2023/07/31 04:11:29;;;;;;;12.55;5.88;;;;;;;17.44;100.00;100997.63;5226843;28;20032;-75
2023/07/31 04:13:59;;;;;;;14.85;6.80;;;;;;;17.44;100.00;100994.91;5244265;28;20016;-74
2023/07/31 04:16:30;;;;;;;17.92;6.47;;;;;;;17.47;100.00;100989.03;5243902;28;20154;-75
2023/07/31 04:19:00;;;;;;;15.00;6.57;;;;;;;17.42;100.00;100981.56;5244452;28;20021;-75
2023/07/31 04:21:31;;;;;;;24.75;7.05;;;;;;;17.33;100.00;100964.66;5244589;28;20025;-75
2023/07/31 04:24:01;;;;;;;15.18;6.55;;;;;;;17.34;100.00;100951.94;5244623;28;20120;-74
2023/07/31 04:26:32;;;;;;;16.80;7.00;;;;;;;17.38;100.00;100964.03;5243970;28;20020;-75
2023/07/31 04:29:02;;;;;;;19.13;7.30;;;;;;;17.31;100.00;100971.31;5244463;28;20385;-75
2023/07/31 04:31:33;;;;;;;15.77;7.60;;;;;;;17.31;100.00;100972.13;5231184;28;20488;-75
2023/07/31 04:34:04;;;;;;;14.27;7.47;;;;;;;17.34;100.00;100969.03;5246106;28;20028;-75
2023/07/31 04:36:35;;;;;;;14.98;6.25;;;;;;;17.29;100.00;100965.28;5230027;28;20059;-75
2023/07/31 04:39:05;;;;;;;17.42;7.13;;;;;;;17.29;100.00;100965.28;5248279;28;20034;-74
2023/07/31 04:41:36;;;;;;;23.17;8.48;;;;;;;17.28;100.00;100961.72;5248697;28;20028;-74
2023/07/31 04:44:06;;;;;;;17.92;7.32;;;;;;;17.26;100.00;100965.66;5248567;28;20548;-74
2023/07/31 04:46:37;;;;;;;21.23;7.32;;;;;;;17.26;100.00;100965.66;5248258;28;20025;-74
2023/07/31 04:49:08;;;;;;;21.15;8.05;;;;;;;17.22;100.00;100965.28;5247969;28;20028;-74
2023/07/31 04:51:38;;;;;;;15.43;7.47;;;;;;;17.22;100.00;100959.84;5248594;28;20153;-73
2023/07/31 04:54:09;;;;;;;15.77;6.53;;;;;;;17.19;100.00;100951.28;5248536;28;20035;-74
2023/07/31 04:56:39;;;;;;;15.77;6.45;;;;;;;17.27;100.00;100959.19;5247946;28;20186;-74
2023/07/31 04:59:09;;;;;;;17.30;6.80;;;;;;;17.23;100.00;100956.09;5230339;28;20013;-74
2023/07/31 05:01:40;;;;;;;17.70;6.15;;;;;;;17.25;100.00;100954.00;5248120;28;20025;-74
2023/07/31 05:04:14;;;;;;;20.08;6.90;;;;;;;17.27;100.00;100953.78;5230261;28;20054;-74
2023/07/31 05:06:44;;;;;;;13.00;6.65;;;;;;;17.31;100.00;100946.91;5247926;28;20077;-73
2023/07/31 05:09:15;;;;;;;15.38;6.65;;;;;;;17.29;100.00;100940.88;5248124;28;20107;-74
2023/07/31 05:11:45;;;;;;;13.13;6.65;;;;;;;17.31;100.00;100934.19;5248081;28;20623;-74
2023/07/31 05:14:16;;;;;;;14.40;6.22;;;;;;;17.35;100.00;100934.59;5247800;28;20077;-74
2023/07/31 05:16:46;;;;;;;20.10;6.63;;;;;;;17.37;100.00;100931.69;5247204;28;20134;-74
2023/07/31 05:19:17;;;;;;;17.60;6.65;;;;;;;17.30;100.00;100929.81;5248004;28;20036;-75
2023/07/31 05:21:47;;;;;;;17.02;7.20;;;;;;;17.31;100.00;100928.75;5230273;28;20057;-74
2023/07/31 05:24:18;;;;;;;20.23;6.88;;;;;;;17.24;100.00;100924.41;5247932;28;20028;-75
2023/07/31 05:26:48;;;;;;;17.70;7.03;;;;;;;17.33;100.00;100932.13;5247119;28;20021;-74
2023/07/31 05:29:19;;;;;;;15.13;6.85;;;;;;;17.31;100.00;100925.22;5230071;28;20025;-74
2023/07/31 05:31:49;;;;;;;19.13;7.18;;;;;;;17.25;100.00;100920.63;5234323;28;20027;-74
2023/07/31 05:34:20;;;;;;;17.63;7.35;;;;;;;17.24;100.00;100925.22;5230397;28;20036;-73
2023/07/31 05:36:50;;;;;;;17.73;7.47;;;;;;;17.25;100.00;100920.63;5247075;28;20029;-74
2023/07/31 05:39:21;;;;;;;14.93;6.38;;;;;;;17.17;100.00;100912.69;5247119;28;20043;-76
2023/07/31 05:41:51;;;;;;;15.98;6.85;;;;;;;17.15;100.00;100915.63;5247779;28;20029;-75
2023/07/31 05:44:22;;;;;;;17.10;6.80;;;;;;;17.05;100.00;100923.34;5247466;28;20531;-75
2023/07/31 05:46:52;;;;;;;16.95;6.32;;;;;;;17.01;100.00;100927.50;5228547;28;20048;-75
2023/07/31 05:49:22;;;;;;;17.52;6.70;;;;;;;16.99;100.00;100921.44;5247283;28;20107;-75
2023/07/31 05:51:53;;;;;;;13.40;6.10;;;;;;;16.96;100.00;100924.56;5247118;28;20029;-74
2023/07/31 05:54:23;;;;;;;17.35;7.00;;;;;;;16.90;100.00;100928.09;5247486;28;20150;-74
2023/07/31 05:56:54;;;;;;;14.68;6.05;;;;;;;16.88;100.00;100927.50;5247225;28;20028;-74
2023/07/31 05:59:24;;;;;;;15.65;7.00;;;;;;;16.94;100.00;100913.94;5247224;28;20025;-74
2023/07/31 06:01:55;;;;;;;14.63;6.30;;;;;;;16.98;100.00;100908.94;5247650;28;20028;-74
2023/07/31 06:04:25;;;;;;;14.35;6.35;;;;;;;16.94;100.00;100910.41;5246863;28;20029;-74
2023/07/31 06:06:56;;;;;;;13.18;6.55;;;;;;;16.99;100.00;100910.59;5246889;28;20028;-74
2023/07/31 06:09:26;;;;;;;15.77;6.60;;;;;;;17.12;100.00;100912.47;5247261;28;20016;-74
2023/07/31 06:11:57;;;;;;;15.13;7.13;;;;;;;17.13;100.00;100903.34;5246996;28;20060;-74
2023/07/31 06:14:27;;;;;;;15.43;7.22;;;;;;;17.07;100.00;100907.72;5247024;28;20028;-75
2023/07/31 06:16:58;;;;;;;16.38;7.10;;;;;;;17.04;100.00;100908.94;5246042;28;20068;-73
2023/07/31 06:19:28;;;;;;;14.65;6.38;;;;;;;17.04;100.00;100908.94;5247242;28;20028;-74
2023/07/31 06:21:59;;;;;;;11.80;6.10;;;;;;;17.10;100.00;100910.00;5246983;28;20052;-74
2023/07/31 06:24:29;;;;;;;20.90;6.68;;;;;;;17.17;100.00;100912.69;5246850;28;20028;-74
2023/07/31 06:27:00;;;;;;;22.08;7.35;;;;;;;17.14;100.00;100908.53;5246171;28;20029;-74
2023/07/31 06:29:30;;;;;;;16.77;6.70;;;;;;;17.16;100.00;100909.16;5246191;28;20028;-74
2023/07/31 06:32:01;;;;;;;20.08;6.22;;;;;;;17.14;100.00;100903.13;5233746;28;20103;-74
2023/07/31 06:34:32;;;;;;;20.40;6.65;;;;;;;17.16;100.00;100900.19;5246758;28;20031;-74
2023/07/31 06:37:02;;;;;;;13.13;5.75;;;;;;;17.24;100.00;100906.25;5246172;28;20491;-74
2023/07/31 06:39:32;;;;;;;14.45;6.10;;;;;;;17.27;100.00;100902.25;5246170;28;20089;-74
2023/07/31 06:42:04;;;;;;;15.00;5.55;;;;;;;17.32;100.00;100888.94;5246872;28;20020;-74
2023/07/31 06:44:34;;;;;;;13.45;5.63;;;;;;;17.27;100.00;100896.84;5246557;28;20028;-74
2023/07/31 06:47:05;;;;;;;17.00;6.03;;;;;;;17.31;100.00;100884.53;5245957;28;20468;-74
2023/07/31 06:49:35;;;;;;;12.30;5.75;;;;;;;17.25;100.00;100879.97;5228642;28;20021;-74
2023/07/31 06:52:06;;;;;;;16.25;5.63;;;;;;;17.29;100.00;100882.06;5245895;28;20026;-74
2023/07/31 06:54:36;;;;;;;13.82;5.80;;;;;;;17.41;100.00;100873.28;5228319;28;20118;-74
2023/07/31 06:57:07;;;;;;;11.85;5.63;;;;;;;17.42;100.00;100874.94;5240653;28;20021;-74
2023/07/31 06:59:38;;;;;;;13.73;5.13;;;;;;;17.46;100.00;100873.47;5235404;28;20370;-75
2023/07/31 07:02:08;;;;;;;16.45;5.88;;;;;;;17.56;100.00;100872.00;5245169;28;20023;-75
2023/07/31 07:04:39;;;;;;;12.48;5.35;;;;;;;17.61;100.00;100864.06;5244859;28;20492;-75
2023/07/31 07:07:09;;;;;;;17.00;5.65;;;;;;;17.67;100.00;100858.81;5244126;28;20777;-75
2023/07/31 07:09:40;;;;;;;10.48;5.07;;;;;;;17.72;100.00;100859.88;5244811;28;20396;-74
2023/07/31 07:12:10;;;;;;;18.02;5.35;;;;;;;17.72;100.00;100846.31;5244696;28;20016;-73
2023/07/31 07:14:41;;;;;;;13.95;5.40;;;;;;;17.76;100.00;100854.88;5226999;28;20499;-73
2023/07/31 07:17:11;;;;;;;12.60;5.25;;;;;;;17.77;100.00;100851.97;5225074;28;20416;-72
2023/07/31 07:19:42;;;;;;;11.02;5.70;;;;;;;17.85;100.00;100859.03;5244740;28;20028;-73
2023/07/31 07:22:12;;;;;;;9.25;4.57;;;;;;;17.83;100.00;100851.09;5244523;28;20021;-73
2023/07/31 07:24:43;;;;;;;11.18;5.43;;;;;;;17.78;100.00;100852.81;5244642;28;20036;-73
2023/07/31 07:27:13;;;;;;;14.57;4.78;;;;;;;17.75;100.00;100861.34;5243582;28;20013;-74
2023/07/31 07:29:43;;;;;;;12.98;5.15;;;;;;;17.81;100.00;100865.91;5243894;28;20101;-74
2023/07/31 07:32:14;;;;;;;11.60;4.75;;;;;;;17.86;100.00;100864.22;5244400;28;20082;-73
2023/07/31 07:34:45;;;;;;;12.02;5.03;;;;;;;17.94;100.00;100863.19;5227060;28;20078;-73
2023/07/31 07:37:15;;;;;;;12.00;4.97;;;;;;;18.00;100.00;100862.31;5243561;28;20560;-73
2023/07/31 07:39:46;;;;;;;11.32;4.75;;;;;;;18.04;100.00;100865.44;5244050;28;20025;-72
2023/07/31 07:42:16;;;;;;;12.10;4.70;;;;;;;17.98;100.00;100860.88;5243754;28;20038;-73
2023/07/31 07:44:47;;;;;;;14.65;4.53;;;;;;;17.96;100.00;100868.38;5244031;28;20097;-73
2023/07/31 07:47:18;;;;;;;13.40;4.63;;;;;;;17.96;100.00;100847.50;5243075;28;20029;-73
2023/07/31 07:49:48;;;;;;;8.82;4.65;;;;;;;17.99;100.00;100868.78;5244180;28;20025;-73
2023/07/31 07:52:19;;;;;;;12.93;4.15;;;;;;;17.92;100.00;100856.28;5243709;28;20020;-73
2023/07/31 07:54:49;;;;;;;13.93;4.50;;;;;;;17.97;100.00;100859.19;5243306;28;20043;-72
2023/07/31 07:57:20;;;;;;;14.18;4.30;;;;;;;17.92;100.00;100867.13;5242682;28;20051;-73
2023/07/31 07:59:50;;;;;;;10.88;4.47;;;;;;;17.85;100.00;100881.56;5243888;28;20020;-74
2023/07/31 08:02:22;;;;;;;12.15;4.10;;;;;;;17.94;100.00;100873.19;5244824;28;20103;-73
2023/07/31 08:04:52;;;;;;;9.15;4.43;;;;;;;17.99;100.00;100859.81;5226856;28;20021;-73
2023/07/31 08:07:23;;;;;;;10.85;4.75;;;;;;;17.98;100.00;100859.00;5244033;28;20029;-72
2023/07/31 08:09:53;;;;;;;11.95;4.20;;;;;;;18.03;100.00;100863.78;5244702;28;20017;-73
2023/07/31 08:12:24;;;;;;;10.02;4.82;;;;;;;18.10;100.00;100859.13;5244815;28;20581;-73
2023/07/31 08:14:55;;;;;;;8.38;4.32;;;;;;;18.18;100.00;100864.34;5227330;28;20028;-72
2023/07/31 08:17:25;;;;;;;12.75;4.35;;;;;;;18.30;100.00;100859.03;5226121;28;20511;-73
2023/07/31 08:19:58;;;;;;;12.93;4.93;;;;;;;18.31;100.00;100847.97;5244266;28;21483;-73
2023/07/31 08:22:28;;;;;;;7.05;3.60;;;;;;;18.40;100.00;100851.25;5244999;28;20020;-73
2023/07/31 08:24:59;;;;;;;6.65;3.80;;;;;;;18.50;100.00;100854.34;5244647;28;20071;-73
2023/07/31 08:27:29;;;;;;;8.40;3.35;;;;;;;18.63;100.00;100853.44;5244216;28;20024;-72
2023/07/31 08:30:00;;;;;;;12.82;4.70;;;;;;;18.74;100.00;100851.94;5244270;28;20494;-72
2023/07/31 08:32:30;;;;;;;8.57;4.03;;;;;;;18.70;100.00;100856.13;5243701;28;20040;-73
2023/07/31 08:35:00;;;;;;;10.55;3.80;;;;;;;18.64;100.00;100849.66;5244701;28;20025;-73
2023/07/31 08:37:31;;;;;;;10.82;3.60;;;;;;;18.79;100.00;100866.53;5244095;28;20119;-73
2023/07/31 08:40:02;;;;;;;13.15;3.72;;;;;;;18.88;100.00;100857.03;5244554;28;20100;-72
2023/07/31 08:42:33;;;;;;;11.02;3.63;;;;;;;18.80;100.00;100856.47;5244278;28;20511;-73
2023/07/31 08:45:04;;;;;;;15.63;4.25;;;;;;;18.84;100.00;100850.38;5244645;28;20043;-73
2023/07/31 08:47:35;;;;;;;6.97;3.05;;;;;;;18.82;100.00;100857.91;5244210;28;20036;-73
2023/07/31 08:50:06;;;;;;;8.45;3.50;;;;;;;18.76;100.00;100858.78;5226730;28;20021;-73
2023/07/31 08:52:37;;;;;;;7.00;3.65;;;;;;;18.66;100.00;100850.25;5244570;28;20036;-74
2023/07/31 08:55:08;;;;;;;11.32;3.65;;;;;;;18.64;100.00;100853.22;5226289;28;20107;-74
2023/07/31 08:57:39;;;;;;;8.15;3.20;;;;;;;18.48;100.00;100852.91;5243758;28;20020;-73
2023/07/31 09:00:11;;;;;;;7.45;3.45;;;;;;;18.61;100.00;100850.09;5226578;28;20425;-73
2023/07/31 09:02:46;;;;;;;11.07;3.40;;;;;;;18.54;100.00;100852.84;5244313;28;20107;-74
2023/07/31 09:05:17;;;;;;;12.40;3.42;;;;;;;18.64;100.00;100852.38;5226355;28;20024;-73
2023/07/31 09:07:50;;;;;;;10.60;3.60;;;;;;;18.69;100.00;100838.16;5230409;28;20028;-73
2023/07/31 09:10:20;;;;;;;8.00;3.60;;;;;;;18.68;100.00;100840.06;5244138;28;20024;-72
2023/07/31 09:12:51;;;;;;;7.03;3.63;;;;;;;18.60;100.00;100848.44;5226538;28;20450;-72
2023/07/31 09:15:23;;;;;;;9.43;3.40;;;;;;;18.61;100.00;100848.19;5244190;28;20391;-72
2023/07/31 09:18:01;;;;;;;9.00;3.67;;;;;;;18.61;100.00;100850.09;5243242;28;20039;-73
2023/07/31 09:20:32;;;;;;;7.50;3.30;;;;;;;18.84;100.00;100844.94;5227093;28;20527;-72
2023/07/31 09:23:22;;;;;;;9.68;3.42;;;;;;;18.78;100.00;100840.41;5247970;28;20116;-73
2023/07/31 09:25:52;;;;;;;10.50;3.45;;;;;;;18.99;100.00;100841.06;5236309;28;20016;-73
2023/07/31 09:28:31;;;;;;;5.03;3.38;;;;;;;19.03;100.00;100837.69;5229427;28;20024;-72
2023/07/31 09:31:02;;;;;;;11.02;4.22;;;;;;;19.08;100.00;100839.75;5229867;28;20052;-72
2023/07/31 09:33:32;;;;;;;7.60;3.25;;;;;;;19.14;100.00;100833.41;5247505;28;20021;-73
2023/07/31 09:36:04;;;;;;;11.32;4.05;;;;;;;19.17;100.00;100830.22;5246845;28;20060;-72
2023/07/31 09:38:35;;;;;;;10.27;3.97;;;;;;;19.15;100.00;100832.34;5229358;28;20515;-73
2023/07/31 09:41:08;;;;;;;6.28;3.72;;;;;;;19.19;100.00;100836.28;5247321;28;20032;-72
2023/07/31 09:43:38;;;;;;;10.30;3.65;;;;;;;19.29;100.00;100830.34;5247532;28;20535;-72
2023/07/31 09:46:13;;;;;;;10.93;4.30;;;;;;;19.37;100.00;100816.44;5247219;28;20028;-73
2023/07/31 09:48:44;;;;;;;15.00;4.60;;;;;;;19.49;100.00;100825.53;5248271;28;20524;-73
2023/07/31 09:51:14;;;;;;;10.10;4.18;;;;;;;19.74;100.00;100822.78;5247066;28;20119;-72
2023/07/31 09:53:50;;;;;;;10.18;4.10;;;;;;;19.80;100.00;100810.97;5247363;28;20025;-73
2023/07/31 09:56:23;;;;;;;8.10;3.72;;;;;;;19.90;100.00;100811.28;5235923;28;20028;-72
2023/07/31 09:58:55;;;;;;;7.22;3.65;;;;;;;19.77;100.00;100808.69;5239596;28;20028;-73
2023/07/31 10:01:26;;;;;;;12.20;3.83;;;;;;;19.54;100.00;100805.81;5228398;28;20090;-73
2023/07/31 10:03:58;;;;;;;9.45;3.50;;;;;;;19.58;100.00;100813.31;5245263;28;20032;-72
2023/07/31 10:06:29;;;;;;;10.30;4.05;;;;;;;19.61;100.00;100801.97;5246141;28;20028;-73
2023/07/31 10:09:00;;;;;;;7.68;3.80;;;;;;;19.80;100.00;100821.88;5246843;28;20027;-72
2023/07/31 10:11:36;;;;;;;8.07;3.70;;;;;;;19.56;100.00;100801.78;5246897;28;20024;-72
2023/07/31 10:14:08;;;;;;;8.73;3.45;;;;;;;19.69;100.00;100810.91;5246618;28;20103;-73
2023/07/31 10:16:40;;;;;;;5.75;2.97;;;;;;;19.48;100.00;100818.44;5245869;28;20024;-72
2023/07/31 10:19:11;;;;;;;9.40;3.20;;;;;;;19.48;100.00;100815.72;5247405;28;20060;-72
2023/07/31 10:21:43;;;;;;;7.95;3.08;;;;;;;19.33;100.00;100812.53;5247197;28;20453;-72
2023/07/31 10:24:15;;;;;;;6.03;2.88;;;;;;;19.39;100.00;100807.00;5247155;28;20484;-72
2023/07/31 10:26:48;;;;;;;11.43;3.45;;;;;;;19.33;100.00;100818.81;5245508;28;20418;-72
2023/07/31 10:29:20;;;;;;;8.50;3.30;;;;;;;19.31;100.00;100801.84;5246861;28;20017;-72
2023/07/31 10:31:52;;;;;;;7.55;3.45;;;;;;;19.40;100.00;100805.94;5233026;28;20028;-72
2023/07/31 10:34:22;;;;;;;6.97;3.45;;;;;;;19.28;100.00;100809.66;5246522;28;20027;-72
2023/07/31 10:37:23;;;;;;;7.72;3.67;;;;;;;19.40;100.00;100813.28;5245792;28;20034;-72
2023/07/31 10:39:56;;;;;;;7.90;3.92;;;;;;;19.25;100.00;100816.34;5246271;28;20063;-73
2023/07/31 10:42:43;;;;;;;6.05;3.55;;;;;;;19.46;100.00;100808.81;5246435;28;20048;-72
2023/07/31 10:48:42;;;;;;;9.35;3.72;;;;;;;19.44;100.00;100814.50;5245784;28;20024;-72
2023/07/31 10:51:13;;;;;;;8.93;4.40;;;;;;;19.35;100.00;100813.13;5225602;28;20032;-72
2023/07/31 10:53:43;;;;;;;10.85;3.92;;;;;;;19.39;100.00;100823.34;5245812;28;20435;-72
2023/07/31 10:56:18;;;;;;;11.73;3.85;;;;;;;19.41;100.00;100814.94;5245210;28;20016;-72
2023/07/31 10:59:00;;;;;;;10.93;4.38;;;;;;;19.48;100.00;100806.69;5245876;28;20029;-72
2023/07/31 11:01:51;;;;;;;9.25;3.90;;;;;;;19.63;100.00;100793.63;5245984;28;20032;-71
2023/07/31 11:04:25;;;;;;;10.25;4.28;;;;;;;19.75;100.00;100802.66;5245284;28;20024;-72
2023/07/31 11:07:15;;;;;;;16.48;5.07;;;;;;;19.92;100.00;100781.91;5245008;28;21276;-72
2023/07/31 11:09:47;;;;;;;15.48;4.60;;;;;;;19.91;100.00;100772.09;5245935;28;20439;-72
2023/07/31 11:12:19;;;;;;;14.20;5.13;;;;;;;20.16;100.00;100771.97;5245348;28;20028;-72
2023/07/31 11:15:09;;;;;;;11.73;4.50;;;;;;;20.11;100.00;100779.16;5245234;28;20040;-72
2023/07/31 11:17:39;;;;;;;11.52;4.63;;;;;;;20.04;100.00;100778.44;5234825;28;20059;-72
2023/07/31 11:20:11;;;;;;;6.72;4.00;;;;;;;20.08;100.00;100771.44;5227506;28;20108;-72
2023/07/31 11:22:41;;;;;;;9.38;4.47;;;;;;;20.05;100.00;100771.91;5245486;28;20059;-72
2023/07/31 11:25:14;;;;;;;14.50;5.70;;;;;;;20.02;100.00;100775.09;5244640;28;20440;-72
2023/07/31 11:27:44;;;;;;;10.57;4.47;;;;;;;19.96;100.00;100767.84;5244885;28;20016;-72
2023/07/31 11:30:18;;;;;;;9.88;4.55;;;;;;;20.13;100.00;100760.69;5227219;28;20035;-72
2023/07/31 11:32:50;;;;;;;13.35;5.47;;;;;;;20.14;100.00;100738.69;5245124;28;20024;-72